sensor_id;sensor_type;location;lat;lon;timestamp;P1;durP1;ratioP1;P2;durP2;ratioP2
8353;SDS011;4656;48.090;11.498;2024-01-30T00:01:13;10.38;;;5.78;;
8353;SDS011;4656;48.090;11.498;2024-01-30T00:03:16;9.37;;;5.03;;
8353;SDS011;4656;48.090;11.498;2024-01-30T00:05:18;9.60;;;5.72;;
8353;SDS011;4656;48.090;11.498;2024-01-30T00:07:20;10.82;;;5.60;;
8353;SDS011;4656;48.090;11.498;2024-01-30T00:09:22;10.00;;;4.38;;
8353;SDS011;4656;48.090;11.498;2024-01-30T00:11:25;10.32;;;4.63;;
8353;SDS011;4656;48.090;11.498;2024-01-30T00:13:28;8.53;;;4.57;;
8353;SDS011;4656;48.090;11.498;2024-01-30T00:15:31;7.50;;;4.53;;
8353;SDS011;4656;48.090;11.498;2024-01-30T00:17:33;7.38;;;3.88;;
8353;SDS011;4656;48.090;11.498;2024-01-30T00:19:34;7.50;;;3.97;;
8353;SDS011;4656;48.090;11.498;2024-01-30T00:21:36;5.13;;;3.42;;
8353;SDS011;4656;48.090;11.498;2024-01-30T00:23:38;6.25;;;3.60;;
8353;SDS011;4656;48.090;11.498;2024-01-30T00:25:40;6.55;;;3.70;;
8353;SDS011;4656;48.090;11.498;2024-01-30T00:27:44;6.18;;;3.55;;
8353;SDS011;4656;48.090;11.498;2024-01-30T00:29:46;6.60;;;3.80;;
8353;SDS011;4656;48.090;11.498;2024-01-30T00:31:48;7.05;;;4.30;;
8353;SDS011;4656;48.090;11.498;2024-01-30T00:33:50;9.00;;;5.28;;
8353;SDS011;4656;48.090;11.498;2024-01-30T00:35:52;11.40;;;6.22;;
8353;SDS011;4656;48.090;11.498;2024-01-30T00:37:54;11.65;;;6.10;;
8353;SDS011;4656;48.090;11.498;2024-01-30T00:39:57;9.98;;;5.72;;
8353;SDS011;4656;48.090;11.498;2024-01-30T00:41:59;10.93;;;5.63;;
8353;SDS011;4656;48.090;11.498;2024-01-30T00:44:02;11.43;;;6.50;;
8353;SDS011;4656;48.090;11.498;2024-01-30T00:46:04;9.87;;;5.50;;
8353;SDS011;4656;48.090;11.498;2024-01-30T00:48:06;11.80;;;6.68;;
8353;SDS011;4656;48.090;11.498;2024-01-30T00:50:08;11.75;;;6.80;;
8353;SDS011;4656;48.090;11.498;2024-01-30T00:52:10;6.97;;;4.25;;
8353;SDS011;4656;48.090;11.498;2024-01-30T00:54:12;7.20;;;4.45;;
8353;SDS011;4656;48.090;11.498;2024-01-30T00:56:14;7.97;;;4.50;;
8353;SDS011;4656;48.090;11.498;2024-01-30T00:58:18;7.55;;;4.43;;
8353;SDS011;4656;48.090;11.498;2024-01-30T01:00:21;8.23;;;4.75;;
8353;SDS011;4656;48.090;11.498;2024-01-30T01:02:28;7.70;;;4.45;;
8353;SDS011;4656;48.090;11.498;2024-01-30T01:04:31;9.38;;;4.75;;
8353;SDS011;4656;48.090;11.498;2024-01-30T01:06:33;7.22;;;4.25;;
8353;SDS011;4656;48.090;11.498;2024-01-30T01:08:34;7.45;;;4.63;;
8353;SDS011;4656;48.090;11.498;2024-01-30T01:10:36;9.95;;;4.38;;
8353;SDS011;4656;48.090;11.498;2024-01-30T01:12:38;7.80;;;4.10;;
8353;SDS011;4656;48.090;11.498;2024-01-30T01:14:40;5.80;;;3.90;;
8353;SDS011;4656;48.090;11.498;2024-01-30T01:16:44;9.10;;;3.80;;
8353;SDS011;4656;48.090;11.498;2024-01-30T01:18:46;4.45;;;3.13;;
8353;SDS011;4656;48.090;11.498;2024-01-30T01:20:48;7.03;;;3.60;;
8353;SDS011;4656;48.090;11.498;2024-01-30T01:22:50;7.65;;;3.75;;
8353;SDS011;4656;48.090;11.498;2024-01-30T01:24:52;5.82;;;3.90;;
8353;SDS011;4656;48.090;11.498;2024-01-30T01:26:54;5.32;;;3.28;;
8353;SDS011;4656;48.090;11.498;2024-01-30T01:28:57;5.68;;;3.42;;
8353;SDS011;4656;48.090;11.498;2024-01-30T01:30:59;6.97;;;3.80;;
8353;SDS011;4656;48.090;11.498;2024-01-30T01:33:06;6.63;;;3.97;;
8353;SDS011;4656;48.090;11.498;2024-01-30T01:35:09;7.20;;;3.53;;
8353;SDS011;4656;48.090;11.498;2024-01-30T01:37:11;6.17;;;3.47;;
8353;SDS011;4656;48.090;11.498;2024-01-30T01:39:13;7.07;;;3.67;;
8353;SDS011;4656;48.090;11.498;2024-01-30T01:41:15;7.25;;;3.92;;
8353;SDS011;4656;48.090;11.498;2024-01-30T01:43:16;6.75;;;3.47;;
8353;SDS011;4656;48.090;11.498;2024-01-30T01:45:19;6.55;;;3.42;;
8353;SDS011;4656;48.090;11.498;2024-01-30T01:47:21;6.13;;;3.90;;
8353;SDS011;4656;48.090;11.498;2024-01-30T01:49:25;5.10;;;3.58;;
8353;SDS011;4656;48.090;11.498;2024-01-30T01:51:30;7.20;;;3.72;;
8353;SDS011;4656;48.090;11.498;2024-01-30T01:53:33;6.25;;;3.55;;
8353;SDS011;4656;48.090;11.498;2024-01-30T01:55:35;6.65;;;3.80;;
8353;SDS011;4656;48.090;11.498;2024-01-30T01:57:37;5.30;;;3.35;;
8353;SDS011;4656;48.090;11.498;2024-01-30T01:59:39;4.85;;;3.25;;
8353;SDS011;4656;48.090;11.498;2024-01-30T02:01:42;5.80;;;3.33;;
8353;SDS011;4656;48.090;11.498;2024-01-30T02:03:45;6.80;;;3.40;;
8353;SDS011;4656;48.090;11.498;2024-01-30T02:05:49;5.67;;;3.43;;
8353;SDS011;4656;48.090;11.498;2024-01-30T02:07:52;5.80;;;3.55;;
8353;SDS011;4656;48.090;11.498;2024-01-30T02:09:54;3.67;;;2.53;;
8353;SDS011;4656;48.090;11.498;2024-01-30T02:11:55;6.93;;;3.60;;
8353;SDS011;4656;48.090;11.498;2024-01-30T02:14:01;5.57;;;3.10;;
8353;SDS011;4656;48.090;11.498;2024-01-30T02:16:04;8.05;;;3.20;;
8353;SDS011;4656;48.090;11.498;2024-01-30T02:18:05;5.93;;;3.47;;
8353;SDS011;4656;48.090;11.498;2024-01-30T02:20:08;5.30;;;3.28;;
8353;SDS011;4656;48.090;11.498;2024-01-30T02:22:12;6.32;;;3.03;;
8353;SDS011;4656;48.090;11.498;2024-01-30T02:24:14;4.75;;;2.80;;
8353;SDS011;4656;48.090;11.498;2024-01-30T02:26:16;6.18;;;2.60;;
8353;SDS011;4656;48.090;11.498;2024-01-30T02:28:18;3.17;;;2.58;;
8353;SDS011;4656;48.090;11.498;2024-01-30T02:30:20;3.27;;;2.43;;
8353;SDS011;4656;48.090;11.498;2024-01-30T02:32:22;4.60;;;2.97;;
8353;SDS011;4656;48.090;11.498;2024-01-30T02:34:24;4.55;;;3.13;;
8353;SDS011;4656;48.090;11.498;2024-01-30T02:36:26;3.92;;;2.90;;
8353;SDS011;4656;48.090;11.498;2024-01-30T02:38:30;3.60;;;2.45;;
8353;SDS011;4656;48.090;11.498;2024-01-30T02:40:32;4.75;;;2.65;;
8353;SDS011;4656;48.090;11.498;2024-01-30T02:42:34;6.65;;;3.08;;
8353;SDS011;4656;48.090;11.498;2024-01-30T02:44:36;4.90;;;2.83;;
8353;SDS011;4656;48.090;11.498;2024-01-30T02:46:38;5.78;;;3.30;;
8353;SDS011;4656;48.090;11.498;2024-01-30T02:48:40;4.97;;;3.13;;
8353;SDS011;4656;48.090;11.498;2024-01-30T02:50:43;7.35;;;4.00;;
8353;SDS011;4656;48.090;11.498;2024-01-30T02:52:46;5.57;;;3.55;;
8353;SDS011;4656;48.090;11.498;2024-01-30T02:54:49;5.68;;;2.92;;
8353;SDS011;4656;48.090;11.498;2024-01-30T02:56:50;5.70;;;3.45;;
8353;SDS011;4656;48.090;11.498;2024-01-30T02:58:52;5.65;;;3.05;;
8353;SDS011;4656;48.090;11.498;2024-01-30T03:00:54;4.60;;;2.87;;
8353;SDS011;4656;48.090;11.498;2024-01-30T03:02:55;3.30;;;2.70;;
8353;SDS011;4656;48.090;11.498;2024-01-30T03:04:58;3.35;;;2.40;;
8353;SDS011;4656;48.090;11.498;2024-01-30T03:07:00;4.18;;;2.38;;
8353;SDS011;4656;48.090;11.498;2024-01-30T03:09:02;2.47;;;2.20;;
8353;SDS011;4656;48.090;11.498;2024-01-30T03:11:06;2.93;;;2.10;;
8353;SDS011;4656;48.090;11.498;2024-01-30T03:13:08;3.70;;;2.40;;
8353;SDS011;4656;48.090;11.498;2024-01-30T03:15:12;2.67;;;2.20;;
8353;SDS011;4656;48.090;11.498;2024-01-30T03:17:14;4.63;;;2.33;;
8353;SDS011;4656;48.090;11.498;2024-01-30T03:19:16;2.73;;;2.20;;
8353;SDS011;4656;48.090;11.498;2024-01-30T03:21:18;4.40;;;2.37;;
8353;SDS011;4656;48.090;11.498;2024-01-30T03:23:21;3.40;;;2.33;;
8353;SDS011;4656;48.090;11.498;2024-01-30T03:25:23;3.58;;;2.40;;
8353;SDS011;4656;48.090;11.498;2024-01-30T03:27:27;2.97;;;2.00;;
8353;SDS011;4656;48.090;11.498;2024-01-30T03:29:29;2.75;;;2.10;;
8353;SDS011;4656;48.090;11.498;2024-01-30T03:31:32;2.92;;;2.17;;
8353;SDS011;4656;48.090;11.498;2024-01-30T03:33:33;3.63;;;2.33;;
8353;SDS011;4656;48.090;11.498;2024-01-30T03:35:35;2.70;;;2.10;;
8353;SDS011;4656;48.090;11.498;2024-01-30T03:37:37;3.58;;;2.25;;
8353;SDS011;4656;48.090;11.498;2024-01-30T03:39:39;2.50;;;2.10;;
8353;SDS011;4656;48.090;11.498;2024-01-30T03:41:42;3.88;;;1.98;;
8353;SDS011;4656;48.090;11.498;2024-01-30T03:43:46;2.40;;;2.10;;
8353;SDS011;4656;48.090;11.498;2024-01-30T03:45:48;3.00;;;2.13;;
8353;SDS011;4656;48.090;11.498;2024-01-30T03:47:50;2.53;;;2.00;;
8353;SDS011;4656;48.090;11.498;2024-01-30T03:49:52;3.00;;;2.10;;
8353;SDS011;4656;48.090;11.498;2024-01-30T03:51:54;3.57;;;2.10;;
8353;SDS011;4656;48.090;11.498;2024-01-30T03:53:56;2.78;;;2.22;;
8353;SDS011;4656;48.090;11.498;2024-01-30T03:55:58;3.75;;;2.55;;
8353;SDS011;4656;48.090;11.498;2024-01-30T03:57:59;2.58;;;2.08;;
8353;SDS011;4656;48.090;11.498;2024-01-30T04:00:02;3.88;;;2.05;;
8353;SDS011;4656;48.090;11.498;2024-01-30T04:02:06;3.53;;;2.33;;
8353;SDS011;4656;48.090;11.498;2024-01-30T04:04:08;5.55;;;2.22;;
8353;SDS011;4656;48.090;11.498;2024-01-30T04:06:10;2.13;;;1.88;;
8353;SDS011;4656;48.090;11.498;2024-01-30T04:08:12;3.08;;;2.05;;
8353;SDS011;4656;48.090;11.498;2024-01-30T04:10:14;2.77;;;2.23;;
8353;SDS011;4656;48.090;11.498;2024-01-30T04:12:15;2.53;;;2.20;;
8353;SDS011;4656;48.090;11.498;2024-01-30T04:14:17;2.85;;;1.92;;
8353;SDS011;4656;48.090;11.498;2024-01-30T04:16:21;2.55;;;2.08;;
8353;SDS011;4656;48.090;11.498;2024-01-30T04:18:23;3.20;;;2.20;;
8353;SDS011;4656;48.090;11.498;2024-01-30T04:20:25;2.13;;;1.92;;
8353;SDS011;4656;48.090;11.498;2024-01-30T04:22:28;2.40;;;2.10;;
8353;SDS011;4656;48.090;11.498;2024-01-30T04:24:29;2.97;;;2.03;;
8353;SDS011;4656;48.090;11.498;2024-01-30T04:26:32;3.13;;;2.00;;
8353;SDS011;4656;48.090;11.498;2024-01-30T04:28:34;2.53;;;2.20;;
8353;SDS011;4656;48.090;11.498;2024-01-30T04:30:37;2.13;;;1.92;;
8353;SDS011;4656;48.090;11.498;2024-01-30T04:32:40;4.72;;;2.30;;
8353;SDS011;4656;48.090;11.498;2024-01-30T04:34:42;4.47;;;2.78;;
8353;SDS011;4656;48.090;11.498;2024-01-30T04:36:44;3.53;;;2.50;;
8353;SDS011;4656;48.090;11.498;2024-01-30T04:38:46;3.28;;;2.85;;
8353;SDS011;4656;48.090;11.498;2024-01-30T04:40:49;3.33;;;2.13;;
8353;SDS011;4656;48.090;11.498;2024-01-30T04:42:51;3.40;;;2.40;;
8353;SDS011;4656;48.090;11.498;2024-01-30T04:44:53;2.20;;;2.00;;
8353;SDS011;4656;48.090;11.498;2024-01-30T04:46:55;2.70;;;2.33;;
8353;SDS011;4656;48.090;11.498;2024-01-30T04:49:00;2.65;;;1.73;;
8353;SDS011;4656;48.090;11.498;2024-01-30T04:51:03;2.28;;;1.88;;
8353;SDS011;4656;48.090;11.498;2024-01-30T04:53:05;3.85;;;2.20;;
8353;SDS011;4656;48.090;11.498;2024-01-30T04:55:08;2.78;;;1.90;;
8353;SDS011;4656;48.090;11.498;2024-01-30T04:57:09;2.47;;;1.90;;
8353;SDS011;4656;48.090;11.498;2024-01-30T04:59:12;1.70;;;1.60;;
8353;SDS011;4656;48.090;11.498;2024-01-30T05:01:14;3.17;;;2.00;;
8353;SDS011;4656;48.090;11.498;2024-01-30T05:03:17;2.20;;;1.70;;
8353;SDS011;4656;48.090;11.498;2024-01-30T05:05:20;3.60;;;2.28;;
8353;SDS011;4656;48.090;11.498;2024-01-30T05:07:22;2.90;;;2.10;;
8353;SDS011;4656;48.090;11.498;2024-01-30T05:09:26;2.58;;;1.80;;
8353;SDS011;4656;48.090;11.498;2024-01-30T05:11:28;2.63;;;1.83;;
8353;SDS011;4656;48.090;11.498;2024-01-30T05:13:30;3.10;;;1.70;;
8353;SDS011;4656;48.090;11.498;2024-01-30T05:15:32;2.28;;;1.98;;
8353;SDS011;4656;48.090;11.498;2024-01-30T05:17:34;2.10;;;1.83;;
8353;SDS011;4656;48.090;11.498;2024-01-30T05:19:37;2.30;;;1.80;;
8353;SDS011;4656;48.090;11.498;2024-01-30T05:21:40;2.42;;;2.00;;
8353;SDS011;4656;48.090;11.498;2024-01-30T05:23:42;2.95;;;2.40;;
8353;SDS011;4656;48.090;11.498;2024-01-30T05:25:44;3.40;;;2.33;;
8353;SDS011;4656;48.090;11.498;2024-01-30T05:27:46;4.93;;;2.78;;
8353;SDS011;4656;48.090;11.498;2024-01-30T05:29:48;3.85;;;2.20;;
8353;SDS011;4656;48.090;11.498;2024-01-30T05:31:50;3.55;;;2.17;;
8353;SDS011;4656;48.090;11.498;2024-01-30T05:33:52;2.90;;;2.05;;
8353;SDS011;4656;48.090;11.498;2024-01-30T05:35:53;4.78;;;2.30;;
8353;SDS011;4656;48.090;11.498;2024-01-30T05:37:57;2.72;;;2.25;;
8353;SDS011;4656;48.090;11.498;2024-01-30T05:39:59;3.88;;;2.47;;
8353;SDS011;4656;48.090;11.498;2024-01-30T05:42:01;4.22;;;2.47;;
8353;SDS011;4656;48.090;11.498;2024-01-30T05:44:03;3.47;;;2.33;;
8353;SDS011;4656;48.090;11.498;2024-01-30T05:46:06;6.53;;;2.40;;
8353;SDS011;4656;48.090;11.498;2024-01-30T05:48:08;4.18;;;2.50;;
8353;SDS011;4656;48.090;11.498;2024-01-30T05:50:11;7.75;;;2.38;;
8353;SDS011;4656;48.090;11.498;2024-01-30T05:52:13;3.50;;;2.45;;
8353;SDS011;4656;48.090;11.498;2024-01-30T05:54:17;4.55;;;2.70;;
8353;SDS011;4656;48.090;11.498;2024-01-30T05:56:19;3.72;;;2.47;;
8353;SDS011;4656;48.090;11.498;2024-01-30T05:58:22;4.95;;;2.72;;
8353;SDS011;4656;48.090;11.498;2024-01-30T06:00:23;3.50;;;2.60;;
8353;SDS011;4656;48.090;11.498;2024-01-30T06:02:25;3.73;;;2.57;;
8353;SDS011;4656;48.090;11.498;2024-01-30T06:04:30;4.30;;;2.75;;
8353;SDS011;4656;48.090;11.498;2024-01-30T06:06:32;9.15;;;2.85;;
8353;SDS011;4656;48.090;11.498;2024-01-30T06:08:34;4.25;;;2.55;;
8353;SDS011;4656;48.090;11.498;2024-01-30T06:10:37;4.07;;;2.40;;
8353;SDS011;4656;48.090;11.498;2024-01-30T06:12:40;4.50;;;2.65;;
8353;SDS011;4656;48.090;11.498;2024-01-30T06:14:42;3.85;;;2.33;;
8353;SDS011;4656;48.090;11.498;2024-01-30T06:16:44;3.78;;;2.55;;
8353;SDS011;4656;48.090;11.498;2024-01-30T06:18:46;6.47;;;2.90;;
8353;SDS011;4656;48.090;11.498;2024-01-30T06:20:48;5.57;;;2.78;;
8353;SDS011;4656;48.090;11.498;2024-01-30T06:22:51;3.58;;;2.60;;
8353;SDS011;4656;48.090;11.498;2024-01-30T06:24:53;5.67;;;2.70;;
8353;SDS011;4656;48.090;11.498;2024-01-30T06:26:55;4.20;;;2.70;;
8353;SDS011;4656;48.090;11.498;2024-01-30T06:28:57;7.63;;;3.08;;
8353;SDS011;4656;48.090;11.498;2024-01-30T06:31:00;4.13;;;2.95;;
8353;SDS011;4656;48.090;11.498;2024-01-30T06:33:02;4.10;;;2.78;;
8353;SDS011;4656;48.090;11.498;2024-01-30T06:35:05;4.40;;;2.80;;
8353;SDS011;4656;48.090;11.498;2024-01-30T06:37:08;5.78;;;2.72;;
8353;SDS011;4656;48.090;11.498;2024-01-30T06:39:10;6.32;;;2.50;;
8353;SDS011;4656;48.090;11.498;2024-01-30T06:41:12;4.85;;;2.30;;
8353;SDS011;4656;48.090;11.498;2024-01-30T06:43:18;4.35;;;3.00;;
8353;SDS011;4656;48.090;11.498;2024-01-30T06:45:20;4.82;;;3.03;;
8353;SDS011;4656;48.090;11.498;2024-01-30T06:47:22;4.63;;;2.55;;
8353;SDS011;4656;48.090;11.498;2024-01-30T06:49:24;3.35;;;2.10;;
8353;SDS011;4656;48.090;11.498;2024-01-30T06:51:26;3.63;;;2.50;;
8353;SDS011;4656;48.090;11.498;2024-01-30T06:53:28;4.63;;;2.28;;
8353;SDS011;4656;48.090;11.498;2024-01-30T06:55:31;4.18;;;2.22;;
8353;SDS011;4656;48.090;11.498;2024-01-30T06:57:33;5.07;;;2.50;;
8353;SDS011;4656;48.090;11.498;2024-01-30T06:59:36;6.53;;;2.45;;
8353;SDS011;4656;48.090;11.498;2024-01-30T07:01:41;2.53;;;2.30;;
8353;SDS011;4656;48.090;11.498;2024-01-30T07:03:43;3.60;;;2.53;;
8353;SDS011;4656;48.090;11.498;2024-01-30T07:05:45;4.53;;;2.67;;
8353;SDS011;4656;48.090;11.498;2024-01-30T07:07:47;3.90;;;2.42;;
8353;SDS011;4656;48.090;11.498;2024-01-30T07:09:49;4.00;;;2.50;;
8353;SDS011;4656;48.090;11.498;2024-01-30T07:11:56;3.22;;;2.25;;
8353;SDS011;4656;48.090;11.498;2024-01-30T07:13:59;3.65;;;2.55;;
8353;SDS011;4656;48.090;11.498;2024-01-30T07:16:05;3.95;;;2.70;;
8353;SDS011;4656;48.090;11.498;2024-01-30T07:18:07;4.30;;;2.88;;
8353;SDS011;4656;48.090;11.498;2024-01-30T07:20:10;5.20;;;2.63;;
8353;SDS011;4656;48.090;11.498;2024-01-30T07:22:11;5.45;;;3.03;;
8353;SDS011;4656;48.090;11.498;2024-01-30T07:24:13;3.80;;;2.42;;
8353;SDS011;4656;48.090;11.498;2024-01-30T07:26:14;3.85;;;2.45;;
8353;SDS011;4656;48.090;11.498;2024-01-30T07:28:16;4.63;;;2.78;;
8353;SDS011;4656;48.090;11.498;2024-01-30T07:30:18;4.90;;;2.77;;
8353;SDS011;4656;48.090;11.498;2024-01-30T07:32:22;6.13;;;3.10;;
8353;SDS011;4656;48.090;11.498;2024-01-30T07:34:24;5.28;;;2.50;;
8353;SDS011;4656;48.090;11.498;2024-01-30T07:36:27;4.57;;;2.80;;
8353;SDS011;4656;48.090;11.498;2024-01-30T07:38:28;3.85;;;2.50;;
8353;SDS011;4656;48.090;11.498;2024-01-30T07:40:30;6.10;;;3.05;;
8353;SDS011;4656;48.090;11.498;2024-01-30T07:42:33;5.90;;;3.17;;
8353;SDS011;4656;48.090;11.498;2024-01-30T07:44:35;4.63;;;2.85;;
8353;SDS011;4656;48.090;11.498;2024-01-30T07:46:37;7.82;;;3.72;;
8353;SDS011;4656;48.090;11.498;2024-01-30T07:48:41;4.20;;;2.85;;
8353;SDS011;4656;48.090;11.498;2024-01-30T07:50:43;4.40;;;2.78;;
8353;SDS011;4656;48.090;11.498;2024-01-30T07:52:45;5.53;;;3.00;;
8353;SDS011;4656;48.090;11.498;2024-01-30T07:54:51;6.03;;;3.10;;
8353;SDS011;4656;48.090;11.498;2024-01-30T07:56:52;5.22;;;3.05;;
8353;SDS011;4656;48.090;11.498;2024-01-30T07:58:55;7.60;;;3.05;;
8353;SDS011;4656;48.090;11.498;2024-01-30T08:00:57;8.52;;;2.65;;
8353;SDS011;4656;48.090;11.498;2024-01-30T08:02:58;4.32;;;2.40;;
8353;SDS011;4656;48.090;11.498;2024-01-30T08:05:02;4.95;;;2.67;;
8353;SDS011;4656;48.090;11.498;2024-01-30T08:07:04;3.20;;;2.35;;
8353;SDS011;4656;48.090;11.498;2024-01-30T08:09:06;3.13;;;2.30;;
8353;SDS011;4656;48.090;11.498;2024-01-30T08:11:08;2.77;;;1.90;;
8353;SDS011;4656;48.090;11.498;2024-01-30T08:13:10;2.92;;;1.90;;
8353;SDS011;4656;48.090;11.498;2024-01-30T08:15:12;3.88;;;1.92;;
8353;SDS011;4656;48.090;11.498;2024-01-30T08:17:14;3.72;;;2.13;;
8353;SDS011;4656;48.090;11.498;2024-01-30T08:19:16;4.82;;;2.30;;
8353;SDS011;4656;48.090;11.498;2024-01-30T08:21:19;3.17;;;2.00;;
8353;SDS011;4656;48.090;11.498;2024-01-30T08:23:21;2.20;;;1.80;;
8353;SDS011;4656;48.090;11.498;2024-01-30T08:25:23;2.88;;;2.05;;
8353;SDS011;4656;48.090;11.498;2024-01-30T08:27:26;2.40;;;1.85;;
8353;SDS011;4656;48.090;11.498;2024-01-30T08:29:30;2.88;;;1.83;;
8353;SDS011;4656;48.090;11.498;2024-01-30T08:31:32;3.50;;;1.80;;
8353;SDS011;4656;48.090;11.498;2024-01-30T08:33:34;1.67;;;1.57;;
8353;SDS011;4656;48.090;11.498;2024-01-30T08:35:36;2.63;;;1.75;;
8353;SDS011;4656;48.090;11.498;2024-01-30T08:37:40;2.05;;;1.77;;
8353;SDS011;4656;48.090;11.498;2024-01-30T08:39:42;1.42;;;1.30;;
8353;SDS011;4656;48.090;11.498;2024-01-30T08:41:44;2.85;;;1.90;;
8353;SDS011;4656;48.090;11.498;2024-01-30T08:43:46;3.38;;;1.50;;
8353;SDS011;4656;48.090;11.498;2024-01-30T08:45:48;1.42;;;1.23;;
8353;SDS011;4656;48.090;11.498;2024-01-30T08:47:50;1.88;;;1.42;;
8353;SDS011;4656;48.090;11.498;2024-01-30T08:49:53;1.55;;;1.45;;
8353;SDS011;4656;48.090;11.498;2024-01-30T08:51:55;2.03;;;1.60;;
8353;SDS011;4656;48.090;11.498;2024-01-30T08:53:58;2.50;;;1.85;;
8353;SDS011;4656;48.090;11.498;2024-01-30T08:56:01;2.10;;;1.85;;
8353;SDS011;4656;48.090;11.498;2024-01-30T08:58:03;2.08;;;1.80;;
8353;SDS011;4656;48.090;11.498;2024-01-30T09:00:05;3.35;;;1.50;;
8353;SDS011;4656;48.090;11.498;2024-01-30T09:02:10;1.90;;;1.70;;
8353;SDS011;4656;48.090;11.498;2024-01-30T09:04:13;1.40;;;1.30;;
8353;SDS011;4656;48.090;11.498;2024-01-30T09:06:15;1.40;;;1.30;;
8353;SDS011;4656;48.090;11.498;2024-01-30T09:08:17;1.50;;;1.40;;
8353;SDS011;4656;48.090;11.498;2024-01-30T09:10:20;1.50;;;1.40;;
8353;SDS011;4656;48.090;11.498;2024-01-30T09:12:22;1.37;;;1.27;;
8353;SDS011;4656;48.090;11.498;2024-01-30T09:14:24;1.30;;;1.20;;
8353;SDS011;4656;48.090;11.498;2024-01-30T09:16:26;1.65;;;1.48;;
8353;SDS011;4656;48.090;11.498;2024-01-30T09:18:28;1.33;;;1.23;;
8353;SDS011;4656;48.090;11.498;2024-01-30T09:20:30;2.13;;;1.10;;
8353;SDS011;4656;48.090;11.498;2024-01-30T09:22:38;1.75;;;1.30;;
8353;SDS011;4656;48.090;11.498;2024-01-30T09:24:40;1.50;;;1.30;;
8353;SDS011;4656;48.090;11.498;2024-01-30T09:26:44;1.30;;;1.20;;
8353;SDS011;4656;48.090;11.498;2024-01-30T09:28:46;1.50;;;1.27;;
8353;SDS011;4656;48.090;11.498;2024-01-30T09:30:48;2.03;;;1.25;;
8353;SDS011;4656;48.090;11.498;2024-01-30T09:32:50;1.00;;;1.00;;
8353;SDS011;4656;48.090;11.498;2024-01-30T09:34:52;1.40;;;1.30;;
8353;SDS011;4656;48.090;11.498;2024-01-30T09:36:54;0.95;;;0.90;;
8353;SDS011;4656;48.090;11.498;2024-01-30T09:38:55;1.00;;;1.00;;
8353;SDS011;4656;48.090;11.498;2024-01-30T09:40:58;1.30;;;1.20;;
8353;SDS011;4656;48.090;11.498;2024-01-30T09:43:04;1.65;;;1.40;;
8353;SDS011;4656;48.090;11.498;2024-01-30T09:45:06;1.20;;;1.10;;
8353;SDS011;4656;48.090;11.498;2024-01-30T09:47:08;1.52;;;1.20;;
8353;SDS011;4656;48.090;11.498;2024-01-30T09:49:11;1.20;;;1.10;;
8353;SDS011;4656;48.090;11.498;2024-01-30T09:51:14;1.10;;;1.10;;
8353;SDS011;4656;48.090;11.498;2024-01-30T09:53:16;1.27;;;1.10;;
8353;SDS011;4656;48.090;11.498;2024-01-30T09:55:18;2.83;;;1.38;;
8353;SDS011;4656;48.090;11.498;2024-01-30T09:57:21;1.30;;;1.00;;
8353;SDS011;4656;48.090;11.498;2024-01-30T09:59:23;1.30;;;1.20;;
8353;SDS011;4656;48.090;11.498;2024-01-30T10:01:25;1.85;;;1.23;;
8353;SDS011;4656;48.090;11.498;2024-01-30T10:03:28;2.10;;;1.30;;
8353;SDS011;4656;48.090;11.498;2024-01-30T10:05:31;1.80;;;1.00;;
8353;SDS011;4656;48.090;11.498;2024-01-30T10:07:33;1.90;;;1.10;;
8353;SDS011;4656;48.090;11.498;2024-01-30T10:09:36;2.15;;;1.15;;
8353;SDS011;4656;48.090;11.498;2024-01-30T10:11:39;0.95;;;0.95;;
8353;SDS011;4656;48.090;11.498;2024-01-30T10:13:41;1.67;;;1.00;;
8353;SDS011;4656;48.090;11.498;2024-01-30T10:15:44;1.70;;;1.25;;
8353;SDS011;4656;48.090;11.498;2024-01-30T10:17:46;1.90;;;1.17;;
8353;SDS011;4656;48.090;11.498;2024-01-30T10:19:49;1.27;;;1.08;;
8353;SDS011;4656;48.090;11.498;2024-01-30T10:21:51;1.90;;;1.30;;
8353;SDS011;4656;48.090;11.498;2024-01-30T10:23:53;1.70;;;1.17;;
8353;SDS011;4656;48.090;11.498;2024-01-30T10:25:55;1.70;;;1.20;;
8353;SDS011;4656;48.090;11.498;2024-01-30T10:27:58;4.00;;;1.25;;
8353;SDS011;4656;48.090;11.498;2024-01-30T10:30:00;1.30;;;1.20;;
8353;SDS011;4656;48.090;11.498;2024-01-30T10:32:05;2.25;;;1.10;;
8353;SDS011;4656;48.090;11.498;2024-01-30T10:34:07;1.33;;;1.10;;
8353;SDS011;4656;48.090;11.498;2024-01-30T10:36:10;4.30;;;1.40;;
8353;SDS011;4656;48.090;11.498;2024-01-30T10:38:13;3.65;;;1.30;;
8353;SDS011;4656;48.090;11.498;2024-01-30T10:40:16;1.33;;;1.15;;
8353;SDS011;4656;48.090;11.498;2024-01-30T10:42:18;2.85;;;1.50;;
8353;SDS011;4656;48.090;11.498;2024-01-30T10:44:21;1.15;;;1.05;;
8353;SDS011;4656;48.090;11.498;2024-01-30T10:46:23;1.42;;;1.10;;
8353;SDS011;4656;48.090;11.498;2024-01-30T10:48:32;1.47;;;1.10;;
8353;SDS011;4656;48.090;11.498;2024-01-30T10:50:41;1.93;;;1.20;;
8353;SDS011;4656;48.090;11.498;2024-01-30T10:52:43;3.17;;;1.40;;
8353;SDS011;4656;48.090;11.498;2024-01-30T10:54:46;1.60;;;1.23;;
8353;SDS011;4656;48.090;11.498;2024-01-30T10:56:49;3.47;;;1.20;;
8353;SDS011;4656;48.090;11.498;2024-01-30T10:58:52;1.30;;;1.20;;
8353;SDS011;4656;48.090;11.498;2024-01-30T11:00:55;1.40;;;1.30;;
8353;SDS011;4656;48.090;11.498;2024-01-30T11:02:57;1.10;;;1.00;;
8353;SDS011;4656;48.090;11.498;2024-01-30T11:05:01;1.83;;;1.67;;
8353;SDS011;4656;48.090;11.498;2024-01-30T11:07:13;1.50;;;1.27;;
8353;SDS011;4656;48.090;11.498;2024-01-30T11:09:16;2.58;;;1.30;;
8353;SDS011;4656;48.090;11.498;2024-01-30T11:11:19;1.92;;;1.20;;
8353;SDS011;4656;48.090;11.498;2024-01-30T11:13:22;2.30;;;1.55;;
8353;SDS011;4656;48.090;11.498;2024-01-30T11:15:28;1.42;;;1.20;;
8353;SDS011;4656;48.090;11.498;2024-01-30T11:17:41;1.10;;;1.00;;
8353;SDS011;4656;48.090;11.498;2024-01-30T11:19:43;1.33;;;1.23;;
8353;SDS011;4656;48.090;11.498;2024-01-30T11:21:47;1.70;;;1.48;;
8353;SDS011;4656;48.090;11.498;2024-01-30T11:23:53;2.60;;;1.90;;
8353;SDS011;4656;48.090;11.498;2024-01-30T11:25:57;1.73;;;1.40;;
8353;SDS011;4656;48.090;11.498;2024-01-30T11:27:59;1.42;;;1.33;;
8353;SDS011;4656;48.090;11.498;2024-01-30T11:30:01;2.53;;;1.10;;
8353;SDS011;4656;48.090;11.498;2024-01-30T11:32:03;1.50;;;1.27;;
8353;SDS011;4656;48.090;11.498;2024-01-30T11:34:05;2.35;;;1.20;;
8353;SDS011;4656;48.090;11.498;2024-01-30T11:36:08;1.30;;;1.20;;
8353;SDS011;4656;48.090;11.498;2024-01-30T11:38:13;2.83;;;1.35;;
8353;SDS011;4656;48.090;11.498;2024-01-30T11:40:16;1.20;;;1.10;;
8353;SDS011;4656;48.090;11.498;2024-01-30T11:42:18;1.10;;;1.00;;
8353;SDS011;4656;48.090;11.498;2024-01-30T11:44:21;3.15;;;1.05;;
8353;SDS011;4656;48.090;11.498;2024-01-30T11:46:24;1.75;;;1.10;;
8353;SDS011;4656;48.090;11.498;2024-01-30T11:48:26;2.00;;;1.20;;
8353;SDS011;4656;48.090;11.498;2024-01-30T11:50:29;1.92;;;1.27;;
8353;SDS011;4656;48.090;11.498;2024-01-30T11:52:30;1.70;;;1.30;;
8353;SDS011;4656;48.090;11.498;2024-01-30T11:54:33;1.10;;;1.10;;
8353;SDS011;4656;48.090;11.498;2024-01-30T11:56:34;1.80;;;1.30;;
8353;SDS011;4656;48.090;11.498;2024-01-30T11:58:42;2.00;;;1.40;;
8353;SDS011;4656;48.090;11.498;2024-01-30T12:00:52;1.30;;;1.20;;
8353;SDS011;4656;48.090;11.498;2024-01-30T12:02:54;2.13;;;1.30;;
8353;SDS011;4656;48.090;11.498;2024-01-30T12:04:57;2.20;;;1.20;;
8353;SDS011;4656;48.090;11.498;2024-01-30T12:06:58;3.38;;;1.48;;
8353;SDS011;4656;48.090;11.498;2024-01-30T12:09:01;1.42;;;1.13;;
8353;SDS011;4656;48.090;11.498;2024-01-30T12:11:06;1.40;;;1.30;;
8353;SDS011;4656;48.090;11.498;2024-01-30T12:13:08;1.65;;;1.15;;
8353;SDS011;4656;48.090;11.498;2024-01-30T12:15:10;1.40;;;1.30;;
8353;SDS011;4656;48.090;11.498;2024-01-30T12:17:22;1.10;;;1.00;;
8353;SDS011;4656;48.090;11.498;2024-01-30T12:19:24;3.00;;;1.38;;
8353;SDS011;4656;48.090;11.498;2024-01-30T12:21:26;1.05;;;1.00;;
8353;SDS011;4656;48.090;11.498;2024-01-30T12:23:29;2.70;;;1.58;;
8353;SDS011;4656;48.090;11.498;2024-01-30T12:25:31;1.70;;;1.30;;
8353;SDS011;4656;48.090;11.498;2024-01-30T12:27:33;1.52;;;1.10;;
8353;SDS011;4656;48.090;11.498;2024-01-30T12:29:36;1.88;;;1.10;;